Time;durP1;ratioP1;P1;durP2;ratioP2;P2;SDS_P1;SDS_P2;PMS_P1;PMS_P2;Temp;Humidity;BMP_temperature;BMP_pressure;BME280_temperature;BME280_humidity;BME280_pressure;Samples;Min_cycle;Max_cycle;Signal;HPM_P1;HPM_P2
2021/06/29 00:01:32;;;;;;;4.70;2.87;;;;;;;19.10;63.97;100793.75;5050471;28;20197;-67
2021/06/29 00:04:00;;;;;;;4.63;2.70;;;;;;;19.11;63.36;100790.00;5058506;28;20225;-67
2021/06/29 00:06:30;;;;;;;6.23;3.30;;;;;;;19.11;63.72;100795.44;5047910;28;20213;-67
2021/06/29 00:08:58;;;;;;;7.23;3.00;;;;;;;19.11;63.22;100785.41;5046806;28;20660;-67
2021/06/29 00:11:27;;;;;;;8.33;3.17;;;;;;;19.14;63.26;100793.25;5047801;28;20244;-66
2021/06/29 00:13:55;;;;;;;5.83;3.00;;;;;;;19.16;63.35;100790.38;5054143;28;20557;-67
2021/06/29 00:16:23;;;;;;;6.23;2.80;;;;;;;19.17;62.81;100790.22;5052759;28;20251;-67
2021/06/29 00:18:51;;;;;;;7.37;2.80;;;;;;;19.11;63.71;100787.28;5049297;28;20206;-67
2021/06/29 00:21:19;;;;;;;5.63;3.20;;;;;;;19.14;62.84;100790.53;5047951;28;20210;-67
2021/06/29 00:23:49;;;;;;;4.13;2.73;;;;;;;18.85;63.31;100736.38;5047273;28;20197;-67
2021/06/29 00:26:17;;;;;;;7.40;3.00;;;;;;;19.07;63.50;100775.84;5058110;28;20202;-67
2021/06/29 00:28:45;;;;;;;5.77;3.00;;;;;;;19.11;63.11;100779.09;5050670;28;20249;-67
2021/06/29 00:31:13;;;;;;;6.50;3.07;;;;;;;19.05;63.36;100768.84;5046122;28;20205;-67
2021/06/29 00:33:42;;;;;;;3.90;2.87;;;;;;;19.09;63.12;100775.69;5047279;28;20572;-67
2021/06/29 00:36:15;;;;;;;4.70;2.93;;;;;;;19.07;63.32;100772.28;5047001;28;20202;-68
2021/06/29 00:38:43;;;;;;;4.57;3.07;;;;;;;18.98;63.52;100768.63;5046349;28;20205;-67
2021/06/29 00:41:13;;;;;;;8.30;3.30;;;;;;;19.00;63.49;100772.06;5047230;28;20193;-68
2021/06/29 00:43:46;;;;;;;6.27;2.90;;;;;;;19.01;63.00;100772.91;5047676;28;20586;-67
2021/06/29 00:46:14;;;;;;;7.23;2.93;;;;;;;19.00;63.05;100776.66;5050510;28;20256;-67
2021/06/29 00:48:42;;;;;;;6.60;3.10;;;;;;;19.01;63.08;100768.31;5058419;28;20694;-67
2021/06/29 00:51:13;;;;;;;6.17;2.90;;;;;;;19.01;62.60;100776.50;5059779;28;20802;-67
2021/06/29 00:53:43;;;;;;;5.83;3.07;;;;;;;19.01;62.61;100779.22;5048607;28;20200;-67
2021/06/29 00:56:14;;;;;;;8.93;3.40;;;;;;;18.96;62.91;100776.06;5050610;28;20664;-67
2021/06/29 00:58:43;;;;;;;6.43;3.53;;;;;;;18.97;62.43;100776.94;5046761;28;20228;-67
2021/06/29 01:01:11;;;;;;;5.57;3.00;;;;;;;18.92;63.11;100777.41;5062171;28;20194;-67
2021/06/29 01:03:41;;;;;;;5.80;2.87;;;;;;;18.87;63.11;100775.16;5048425;28;20269;-67
2021/06/29 01:06:11;;;;;;;9.53;3.13;;;;;;;18.74;63.82;100780.16;5057310;28;20692;-67
2021/06/29 01:08:40;;;;;;;7.33;2.90;;;;;;;18.68;63.83;100778.06;5043089;28;20198;-67
2021/06/29 01:11:09;;;;;;;8.60;3.17;;;;;;;18.54;64.58;100771.25;5043552;28;20194;-73
2021/06/29 01:13:40;;;;;;;7.73;3.40;;;;;;;18.50;64.63;100774.44;5045945;28;20214;-73
2021/06/29 01:16:09;;;;;;;6.23;3.17;;;;;;;18.43;64.81;100773.34;5029104;28;20203;-73
2021/06/29 01:18:40;;;;;;;6.23;3.00;;;;;;;18.38;64.70;100770.25;5051704;28;20276;-73
2021/06/29 01:21:13;;;;;;;7.53;3.07;;;;;;;18.22;64.70;100757.31;5050382;28;20198;-73
2021/06/29 01:23:44;;;;;;;7.13;3.00;;;;;;;18.37;64.67;100769.38;5038222;28;20202;-73
2021/06/29 01:26:18;;;;;;;4.23;2.80;;;;;;;18.39;64.62;100774.69;5043972;28;20218;-67
2021/06/29 01:28:54;;;;;;;8.10;3.00;;;;;;;18.30;64.76;100771.84;5040042;28;20253;-67
2021/06/29 01:31:22;;;;;;;6.70;3.07;;;;;;;18.16;66.18;100766.94;5047202;28;20706;-67
2021/06/29 01:33:50;;;;;;;6.67;2.87;;;;;;;18.08;66.22;100766.00;5039447;28;20264;-67
2021/06/29 01:36:23;;;;;;;6.30;3.20;;;;;;;18.00;66.94;100761.28;5055391;28;20696;-67
2021/06/29 01:38:52;;;;;;;6.30;3.17;;;;;;;17.92;67.29;100769.34;5042534;28;20225;-67
2021/06/29 01:41:23;;;;;;;5.20;3.00;;;;;;;17.85;67.43;100763.69;5046173;28;20198;-67
2021/06/29 01:43:53;;;;;;;5.77;2.70;;;;;;;17.88;66.84;100762.50;5047666;28;20194;-68
2021/06/29 01:46:23;;;;;;;7.87;3.10;;;;;;;17.88;66.60;100754.38;5050362;28;20225;-67
2021/06/29 01:48:53;;;;;;;5.80;2.83;;;;;;;17.81;66.72;100745.97;5046893;28;20372;-67
2021/06/29 01:51:23;;;;;;;4.97;3.20;;;;;;;17.80;67.27;100751.56;5046802;28;20198;-67
2021/06/29 01:53:53;;;;;;;6.57;3.03;;;;;;;17.81;66.85;100747.84;5048641;28;20202;-67
2021/06/29 01:56:27;;;;;;;4.40;2.93;;;;;;;17.81;66.75;100753.25;5052441;28;20249;-67
2021/06/29 01:58:57;;;;;;;7.03;3.30;;;;;;;17.76;67.07;100740.13;5048610;28;20205;-72
2021/06/29 02:01:26;;;;;;;4.73;3.07;;;;;;;17.69;66.70;100731.72;5043592;28;20201;-72
2021/06/29 02:03:54;;;;;;;5.50;3.03;;;;;;;17.77;67.04;100747.28;5037097;28;20685;-72
2021/06/29 02:06:24;;;;;;;4.57;3.17;;;;;;;17.81;66.83;100748.69;5044736;28;20217;-72
2021/06/29 02:08:55;;;;;;;5.87;3.10;;;;;;;17.78;66.79;100748.13;5048292;28;20247;-72
2021/06/29 02:11:23;;;;;;;4.97;2.93;;;;;;;17.79;66.82;100742.56;5055415;28;20555;-72
2021/06/29 02:13:51;;;;;;;6.90;3.43;;;;;;;17.85;66.12;100738.38;5049794;28;20198;-72
2021/06/29 02:16:19;;;;;;;7.33;2.90;;;;;;;17.86;65.88;100742.78;5049117;28;20189;-72
2021/06/29 02:18:48;;;;;;;11.87;3.50;;;;;;;17.94;65.52;100745.59;5046880;28;20226;-72
2021/06/29 02:21:16;;;;;;;5.13;3.33;;;;;;;17.91;64.78;100735.03;5046979;28;20198;-72
2021/06/29 02:23:45;;;;;;;7.27;2.90;;;;;;;18.05;65.03;100752.69;5048265;28;20198;-72
2021/06/29 02:26:13;;;;;;;5.63;3.10;;;;;;;18.07;64.84;100746.13;5049140;28;20233;-72
2021/06/29 02:28:41;;;;;;;6.53;3.47;;;;;;;18.16;64.46;100745.19;5048356;28;20542;-72
2021/06/29 02:31:10;;;;;;;5.43;2.53;;;;;;;18.27;64.71;100747.69;5047502;28;20205;-72
2021/06/29 02:33:38;;;;;;;5.57;3.37;;;;;;;18.38;64.39;100748.50;5047381;28;20695;-72
2021/06/29 02:36:06;;;;;;;8.03;3.50;;;;;;;18.55;65.37;100740.31;5046184;28;20213;-72
2021/06/29 02:38:36;;;;;;;6.70;3.07;;;;;;;18.66;66.48;100701.16;5046444;28;20198;-72
2021/06/29 02:41:06;;;;;;;6.97;3.53;;;;;;;19.57;66.57;100753.38;5046612;28;20525;-72
2021/06/29 02:43:36;;;;;;;4.80;3.17;;;;;;;20.08;64.63;100727.91;5047708;28;20520;-67
2021/06/29 02:46:05;;;;;;;10.53;3.30;;;;;;;20.84;63.64;100747.84;5040800;28;20227;-67
2021/06/29 02:48:33;;;;;;;8.00;3.17;;;;;;;21.53;61.40;100754.63;5049617;28;20198;-67
2021/06/29 02:51:02;;;;;;;8.50;3.50;;;;;;;22.19;60.13;100742.44;5045725;28;20194;-66
2021/06/29 02:53:30;;;;;;;4.60;3.13;;;;;;;22.78;58.69;100750.94;5043783;28;20206;-66
2021/06/29 02:55:58;;;;;;;4.53;2.83;;;;;;;23.38;57.32;100753.66;5049956;28;20198;-66
2021/06/29 02:58:28;;;;;;;4.63;2.67;;;;;;;23.98;55.44;100752.66;5055378;28;20202;-67
2021/06/29 03:00:56;;;;;;;8.77;2.87;;;;;;;24.52;53.96;100762.44;5045323;28;20210;-73
2021/06/29 03:03:24;;;;;;;5.43;2.73;;;;;;;24.86;53.48;100762.59;5033676;28;20203;-73
2021/06/29 03:05:52;;;;;;;6.60;2.93;;;;;;;24.96;51.95;100767.75;5033938;28;20214;-66
2021/06/29 03:08:20;;;;;;;5.40;2.77;;;;;;;24.67;51.45;100765.97;5040937;28;20202;-72
2021/06/29 03:10:48;;;;;;;6.17;3.10;;;;;;;24.25;52.00;100766.75;5047851;28;20193;-72
2021/06/29 03:13:16;;;;;;;5.57;3.23;;;;;;;23.97;52.64;100769.34;5058743;28;20202;-71
2021/06/29 03:15:46;;;;;;;7.50;3.27;;;;;;;23.78;53.50;100770.75;5041392;28;20205;-71
2021/06/29 03:18:14;;;;;;;6.53;3.33;;;;;;;23.45;54.12;100759.25;5045919;28;20435;-71
2021/06/29 03:20:42;;;;;;;8.43;3.30;;;;;;;23.43;54.60;100767.66;5041805;28;20202;-66
2021/06/29 03:23:10;;;;;;;4.27;2.70;;;;;;;23.32;54.39;100764.53;5039068;28;20700;-66
2021/06/29 03:25:38;;;;;;;6.20;2.80;;;;;;;22.89;54.89;100762.31;5047179;28;20483;-66
2021/06/29 03:28:06;;;;;;;6.30;3.13;;;;;;;22.73;55.37;100764.31;5046724;28;20681;-66
2021/06/29 03:30:35;;;;;;;9.43;3.03;;;;;;;22.67;55.71;100763.19;5052622;28;20198;-66
2021/06/29 03:33:05;;;;;;;5.43;3.30;;;;;;;22.67;56.13;100763.19;5047478;28;20209;-66
2021/06/29 03:35:33;;;;;;;4.57;2.83;;;;;;;22.59;56.25;100768.69;5047408;28;20210;-67
2021/06/29 03:38:02;;;;;;;5.90;3.33;;;;;;;22.34;57.01;100765.25;5046543;28;20276;-67
2021/06/29 03:40:30;;;;;;;10.60;3.33;;;;;;;22.08;58.37;100776.50;5047989;28;20281;-67
2021/06/29 03:42:58;;;;;;;4.40;3.00;;;;;;;21.74;58.48;100760.38;5044554;28;20198;-72
2021/06/29 03:45:26;;;;;;;6.43;3.40;;;;;;;21.67;58.99;100762.94;5044327;28;20198;-72
2021/06/29 03:47:54;;;;;;;6.80;3.03;;;;;;;21.49;59.61;100761.47;5045994;28;20218;-71
2021/06/29 03:50:25;;;;;;;4.00;2.73;;;;;;;21.38;59.58;100762.66;5045528;28;20528;-71
2021/06/29 03:52:54;;;;;;;6.30;3.23;;;;;;;21.47;59.06;100764.38;5046026;28;20209;-72
2021/06/29 03:55:23;;;;;;;4.70;2.80;;;;;;;21.44;59.52;100742.88;5042946;28;20209;-72
2021/06/29 03:57:51;;;;;;;5.53;2.93;;;;;;;21.59;59.86;100765.72;5035443;28;20243;-72
2021/06/29 04:00:19;;;;;;;8.97;2.90;;;;;;;21.46;60.08;100754.47;5033507;28;20329;-72
2021/06/29 04:02:47;;;;;;;3.13;2.23;;;;;;;21.24;60.22;100747.84;5036733;28;20676;-72
2021/06/29 04:05:17;;;;;;;5.37;2.60;;;;;;;21.27;60.09;100752.97;5035820;28;20556;-72
2021/06/29 04:07:47;;;;;;;5.13;2.80;;;;;;;21.27;59.77;100755.69;5042544;28;20228;-72
2021/06/29 04:10:16;;;;;;;4.70;2.60;;;;;;;21.23;60.32;100756.19;5043629;28;20198;-72
2021/06/29 04:12:44;;;;;;;7.30;2.80;;;;;;;21.11;60.37;100757.53;5047455;28;20210;-72
2021/06/29 04:15:14;;;;;;;4.83;2.43;;;;;;;21.20;60.64;100749.19;5049549;28;20240;-72
2021/06/29 04:17:42;;;;;;;5.30;2.40;;;;;;;21.18;60.28;100732.13;5046870;28;20198;-68
2021/06/29 04:20:12;;;;;;;6.80;2.60;;;;;;;21.37;59.76;100745.41;5046688;28;20200;-67
2021/06/29 04:22:40;;;;;;;4.07;2.50;;;;;;;21.27;59.44;100750.22;5054545;28;20651;-67
2021/06/29 04:25:11;;;;;;;3.67;2.30;;;;;;;21.29;59.85;100747.31;5046387;28;20202;-67
2021/06/29 04:27:39;;;;;;;7.43;2.53;;;;;;;21.18;59.78;100751.25;5046853;28;20245;-67
2021/06/29 04:30:09;;;;;;;7.03;2.30;;;;;;;21.28;58.95;100748.34;5044702;28;20230;-67
2021/06/29 04:32:37;;;;;;;6.07;2.30;;;;;;;21.35;58.79;100744.75;5046549;28;20572;-67
2021/06/29 04:35:07;;;;;;;3.30;2.33;;;;;;;21.26;59.24;100748.53;5040955;28;20335;-67
2021/06/29 04:37:35;;;;;;;3.57;2.40;;;;;;;21.29;59.47;100745.44;5046159;28;20212;-67
2021/06/29 04:40:03;;;;;;;3.80;2.47;;;;;;;21.25;59.61;100748.69;5039792;28;20187;-68
2021/06/29 04:42:33;;;;;;;3.67;2.20;;;;;;;21.31;59.34;100740.66;5043440;28;20213;-67
2021/06/29 04:45:01;;;;;;;4.30;2.47;;;;;;;21.42;58.39;100746.78;5046118;28;20199;-67
2021/06/29 04:47:35;;;;;;;4.23;2.37;;;;;;;21.40;58.69;100738.75;5050060;28;20209;-67
2021/06/29 04:50:05;;;;;;;3.80;2.20;;;;;;;21.50;58.22;100749.50;5042181;28;20638;-66
2021/06/29 04:52:33;;;;;;;2.67;2.30;;;;;;;21.50;58.48;100746.78;5040624;28;20526;-66
2021/06/29 04:55:01;;;;;;;4.43;2.70;;;;;;;21.49;58.96;100745.94;5040440;28;20703;-66
2021/06/29 04:57:29;;;;;;;4.77;2.40;;;;;;;21.53;57.92;100749.16;5049704;28;20568;-66
2021/06/29 05:00:00;;;;;;;6.70;2.33;;;;;;;21.57;58.35;100750.50;5049348;28;20202;-66
2021/06/29 05:02:28;;;;;;;4.30;2.40;;;;;;;21.58;59.54;100753.06;5049690;28;20403;-67
2021/06/29 05:04:56;;;;;;;6.83;2.40;;;;;;;21.71;60.04;100752.50;5049743;28;20190;-66
2021/06/29 05:07:24;;;;;;;4.07;2.40;;;;;;;21.88;59.67;100736.91;5048941;28;20224;-71
2021/06/29 05:09:52;;;;;;;3.57;2.40;;;;;;;22.08;60.17;100738.22;5056010;28;20208;-72
2021/06/29 05:12:20;;;;;;;4.53;2.43;;;;;;;22.30;59.64;100736.53;5059893;28;20689;-72
2021/06/29 05:14:49;;;;;;;5.00;2.20;;;;;;;22.36;59.33;100732.25;5049761;28;20206;-72
2021/06/29 05:17:18;;;;;;;4.90;2.53;;;;;;;22.59;58.91;100727.63;5056777;28;20668;-72
2021/06/29 05:19:46;;;;;;;3.17;2.10;;;;;;;22.88;56.97;100735.13;5043766;28;20280;-72
2021/06/29 05:22:15;;;;;;;4.10;2.50;;;;;;;22.93;57.30;100733.53;5056623;28;20208;-72
2021/06/29 05:24:43;;;;;;;6.43;2.50;;;;;;;23.20;56.19;100733.97;5047317;28;20201;-72
2021/06/29 05:27:11;;;;;;;2.60;2.30;;;;;;;23.48;55.61;100739.69;5048276;28;20200;-72
2021/06/29 05:29:39;;;;;;;5.10;1.97;;;;;;;23.79;55.31;100745.88;5044108;28;20269;-72
2021/06/29 05:32:08;;;;;;;3.10;2.10;;;;;;;23.93;54.88;100735.09;5049555;28;20225;-72
2021/06/29 05:34:38;;;;;;;7.77;2.50;;;;;;;24.04;54.74;100738.19;5049249;28;20190;-72
2021/06/29 05:37:06;;;;;;;2.53;2.00;;;;;;;24.25;54.62;100734.66;5048593;28;20613;-72
2021/06/29 05:39:34;;;;;;;6.17;2.20;;;;;;;24.48;54.49;100728.16;5048576;28;20285;-72
2021/06/29 05:42:02;;;;;;;3.70;2.00;;;;;;;24.61;53.38;100734.66;5057024;28;20201;-72
2021/06/29 05:44:30;;;;;;;3.80;2.47;;;;;;;24.82;53.07;100733.81;5055856;28;20202;-72
2021/06/29 05:47:03;;;;;;;4.60;2.20;;;;;;;25.03;53.21;100732.94;5046074;28;20202;-72
2021/06/29 05:49:31;;;;;;;5.10;2.10;;;;;;;25.12;52.70;100730.94;5035880;28;20203;-72
2021/06/29 05:52:01;;;;;;;3.30;2.00;;;;;;;25.54;51.40;100733.56;5032655;28;20210;-66
2021/06/29 05:54:30;;;;;;;2.55;2.00;;;;;;;25.97;50.07;100731.47;5032015;28;20285;-66
2021/06/29 05:56:58;;;;;;;4.13;2.00;;;;;;;26.27;49.14;100729.25;5035841;28;20202;-66
2021/06/29 05:59:27;;;;;;;5.45;2.22;;;;;;;26.44;48.79;100726.19;5037643;28;20199;-65
2021/06/29 06:01:55;;;;;;;4.13;2.15;;;;;;;26.71;48.01;100727.09;5044278;28;20214;-67
2021/06/29 06:04:23;;;;;;;2.10;1.90;;;;;;;26.98;47.80;100733.47;5046180;28;20202;-67
2021/06/29 06:06:51;;;;;;;3.58;2.00;;;;;;;27.08;47.43;100736.69;5053832;28;20197;-67
2021/06/29 06:09:21;;;;;;;3.92;1.90;;;;;;;27.44;47.79;100728.78;5069903;28;20208;-68
2021/06/29 06:11:49;;;;;;;4.90;2.00;;;;;;;27.52;46.47;100731.31;5051925;28;20209;-66
2021/06/29 06:14:17;;;;;;;2.25;2.03;;;;;;;27.74;46.53;100718.16;5058024;28;20685;-66
2021/06/29 06:16:45;;;;;;;2.53;1.60;;;;;;;27.90;45.71;100711.31;5052785;28;20660;-66
2021/06/29 06:19:13;;;;;;;7.18;2.20;;;;;;;28.17;45.72;100708.44;5058429;28;20190;-66
2021/06/29 06:21:41;;;;;;;3.10;1.90;;;;;;;28.45;45.26;100712.53;5045648;28;20205;-66
2021/06/29 06:24:10;;;;;;;7.22;2.20;;;;;;;28.72;45.05;100707.66;5046821;28;20201;-66
2021/06/29 06:26:40;;;;;;;2.72;1.90;;;;;;;28.47;43.29;100705.94;5046935;28;20704;-66
2021/06/29 06:29:08;;;;;;;3.65;2.30;;;;;;;28.61;43.60;100702.88;5040248;28;20259;-66
2021/06/29 06:31:36;;;;;;;3.72;2.05;;;;;;;28.61;43.34;100694.59;5039259;28;20220;-65
2021/06/29 06:34:05;;;;;;;4.82;1.92;;;;;;;28.62;43.91;100709.25;5046353;28;20202;-66
2021/06/29 06:36:33;;;;;;;2.90;2.05;;;;;;;28.90;43.49;100708.88;5042681;28;20296;-66
2021/06/29 06:39:02;;;;;;;3.97;2.13;;;;;;;29.05;43.44;100714.88;5046049;28;20509;-66
2021/06/29 06:41:30;;;;;;;5.00;2.08;;;;;;;29.24;42.54;100713.88;5043975;28;20212;-66
2021/06/29 06:44:00;;;;;;;3.70;2.22;;;;;;;29.56;42.71;100705.50;5045958;28;20202;-66
2021/06/29 06:46:28;;;;;;;5.63;2.28;;;;;;;29.82;41.53;100710.75;5048612;28;20198;-66
2021/06/29 06:48:56;;;;;;;4.72;2.63;;;;;;;29.59;41.06;100713.34;5044191;28;20701;-66
2021/06/29 06:51:29;;;;;;;3.95;1.80;;;;;;;29.77;40.56;100713.34;5044398;28;20304;-66
2021/06/29 06:53:57;;;;;;;3.40;2.00;;;;;;;30.11;41.26;100713.81;5034971;28;20213;-66
2021/06/29 06:56:25;;;;;;;3.13;1.98;;;;;;;30.16;39.90;100706.50;5060726;28;20572;-66
2021/06/29 06:58:54;;;;;;;4.45;2.08;;;;;;;30.14;39.66;100713.34;5043141;28;20377;-66
2021/06/29 07:01:23;;;;;;;2.35;1.80;;;;;;;30.24;38.92;100714.47;5043595;28;20281;-66
2021/06/29 07:03:51;;;;;;;4.03;2.03;;;;;;;30.55;39.69;100707.00;5046003;28;20267;-65
2021/06/29 07:06:19;;;;;;;4.05;1.88;;;;;;;30.25;39.24;100716.19;5044642;28;20213;-66
2021/06/29 07:08:48;;;;;;;4.22;2.03;;;;;;;30.42;39.18;100710.84;5042191;28;20222;-67
2021/06/29 07:11:16;;;;;;;2.78;1.85;;;;;;;30.83;39.14;100706.41;5047009;28;20453;-67
2021/06/29 07:13:44;;;;;;;2.15;1.75;;;;;;;30.84;38.89;100699.75;5046267;28;20205;-66
2021/06/29 07:16:12;;;;;;;4.20;1.92;;;;;;;30.86;38.14;100709.53;5044943;28;20205;-66
2021/06/29 07:18:41;;;;;;;2.45;2.03;;;;;;;31.26;38.59;100713.63;5045593;28;20606;-66
2021/06/29 07:21:11;;;;;;;3.15;2.03;;;;;;;31.11;38.45;100678.81;5044738;28;20251;-66
2021/06/29 07:23:39;;;;;;;4.38;2.13;;;;;;;31.36;37.47;100705.53;5045910;28;20689;-66
2021/06/29 07:26:07;;;;;;;4.65;2.50;;;;;;;31.18;37.05;100712.03;5046321;28;20213;-66
2021/06/29 07:28:35;;;;;;;4.15;2.10;;;;;;;31.17;37.90;100719.50;5044507;28;20250;-66
2021/06/29 07:31:09;;;;;;;3.40;2.50;;;;;;;31.21;37.72;100717.09;5043932;28;20202;-66
2021/06/29 07:33:38;;;;;;;2.63;2.38;;;;;;;31.63;37.79;100709.50;5040447;28;20198;-66
2021/06/29 07:36:09;;;;;;;3.50;2.10;;;;;;;31.33;36.93;100717.97;5040333;28;20285;-67
2021/06/29 07:38:38;;;;;;;3.10;2.22;;;;;;;31.26;38.26;100708.06;5048935;28;20214;-66
2021/06/29 07:41:07;;;;;;;2.30;2.10;;;;;;;31.29;37.54;100713.97;5045245;28;20198;-66
2021/06/29 07:43:35;;;;;;;3.72;2.00;;;;;;;31.57;37.92;100704.91;5035691;28;20579;-66
2021/06/29 07:46:03;;;;;;;2.38;2.13;;;;;;;31.26;37.08;100706.13;5035976;28;20204;-67
2021/06/29 07:48:32;;;;;;;4.05;2.22;;;;;;;31.66;37.45;100711.78;5038851;28;20222;-67
2021/06/29 07:51:00;;;;;;;3.25;2.22;;;;;;;31.56;37.59;100699.59;5038328;28;20226;-66
2021/06/29 07:53:30;;;;;;;4.55;2.35;;;;;;;31.93;37.41;100706.56;5039640;28;20201;-66
2021/06/29 07:55:58;;;;;;;2.53;2.05;;;;;;;32.12;36.98;100710.00;5040954;28;20204;-67
2021/06/29 07:58:27;;;;;;;2.60;2.15;;;;;;;32.05;36.55;100704.56;5040288;28;20571;-72
2021/06/29 08:00:56;;;;;;;4.35;2.17;;;;;;;32.20;36.20;100711.56;5038454;28;20938;-72
2021/06/29 08:03:25;;;;;;;4.05;2.22;;;;;;;32.53;36.48;100722.81;5037607;28;20198;-72
2021/06/29 08:05:53;;;;;;;4.07;2.55;;;;;;;32.73;36.35;100711.19;5038805;28;20216;-72
2021/06/29 08:08:22;;;;;;;2.95;2.38;;;;;;;32.51;36.47;100719.44;5037703;28;20225;-72
2021/06/29 08:10:52;;;;;;;2.90;2.30;;;;;;;32.50;36.00;100720.53;5038913;28;20807;-72
2021/06/29 08:13:20;;;;;;;3.53;2.33;;;;;;;32.88;36.32;100719.00;5039012;28;20521;-72
2021/06/29 08:15:48;;;;;;;3.85;2.40;;;;;;;33.10;35.83;100719.13;5037846;28;20213;-71
2021/06/29 08:18:16;;;;;;;3.20;2.13;;;;;;;33.16;34.94;100716.16;5042223;28;20198;-72
2021/06/29 08:20:46;;;;;;;2.40;2.20;;;;;;;32.67;35.48;100717.75;5047396;28;20588;-72
2021/06/29 08:23:15;;;;;;;2.58;2.38;;;;;;;32.39;36.52;100719.47;5045531;28;20186;-72
2021/06/29 08:25:44;;;;;;;3.65;2.08;;;;;;;32.57;35.62;100720.38;5044744;28;20587;-72
2021/06/29 08:28:14;;;;;;;2.20;2.00;;;;;;;32.24;35.77;100710.81;5045228;28;20237;-72
2021/06/29 08:30:42;;;;;;;4.38;2.50;;;;;;;32.66;36.12;100721.66;5042781;28;20194;-67
2021/06/29 08:33:12;;;;;;;3.53;2.30;;;;;;;32.99;35.82;100721.72;5043031;28;20198;-66
2021/06/29 08:35:41;;;;;;;2.83;2.50;;;;;;;32.74;35.35;100713.72;5044277;28;20684;-66
2021/06/29 08:38:10;;;;;;;3.40;2.40;;;;;;;32.83;35.39;100683.59;5042458;28;20208;-67
2021/06/29 08:40:41;;;;;;;3.58;2.10;;;;;;;33.14;34.63;100711.94;5045768;28;20194;-66
2021/06/29 08:43:11;;;;;;;4.00;2.60;;;;;;;32.68;34.33;100713.88;5045344;28;20206;-66
2021/06/29 08:45:41;;;;;;;6.90;1.90;;;;;;;32.62;34.22;100721.31;5049722;28;20205;-67
2021/06/29 08:48:09;;;;;;;3.25;1.90;;;;;;;33.03;34.93;100708.13;5049334;28;20208;-66
2021/06/29 08:50:39;;;;;;;2.97;2.10;;;;;;;33.23;34.34;100721.53;5046739;28;20595;-66
2021/06/29 08:53:11;;;;;;;3.55;1.80;;;;;;;33.19;34.32;100723.16;5045684;28;20205;-66
2021/06/29 08:55:43;;;;;;;3.65;2.22;;;;;;;33.32;35.24;100733.97;5046304;28;20233;-66
2021/06/29 08:58:15;;;;;;;2.53;2.05;;;;;;;33.32;34.87;100728.41;5044577;28;20549;-66
2021/06/29 09:00:44;;;;;;;4.93;2.20;;;;;;;32.81;34.70;100726.69;5043136;28;20564;-66
2021/06/29 09:03:13;;;;;;;2.90;2.20;;;;;;;32.74;33.99;100726.78;5049732;28;20209;-66
2021/06/29 09:05:44;;;;;;;6.13;2.22;;;;;;;32.54;34.61;100723.66;5050806;28;20683;-66
2021/06/29 09:08:16;;;;;;;4.40;2.30;;;;;;;33.14;34.81;100717.50;5050177;28;20222;-66
2021/06/29 09:11:05;;;;;;;3.97;2.53;;;;;;;32.90;35.15;100726.00;5062465;28;20231;-66
2021/06/29 09:13:33;;;;;;;5.18;2.42;;;;;;;32.55;35.54;100717.00;5052256;28;20204;-65
2021/06/29 09:16:05;;;;;;;2.83;2.22;;;;;;;32.37;35.97;100679.09;5052667;28;20284;-65
2021/06/29 09:18:36;;;;;;;6.55;2.30;;;;;;;33.08;35.69;100704.59;5050842;28;20197;-66
2021/06/29 09:21:05;;;;;;;3.25;2.40;;;;;;;33.02;35.37;100710.06;5048868;28;20566;-65
2021/06/29 09:23:35;;;;;;;5.38;2.47;;;;;;;32.79;35.05;100707.47;5049443;28;20194;-66
2021/06/29 09:26:11;;;;;;;5.45;2.42;;;;;;;33.26;35.17;100707.94;5045618;28;20658;-66
2021/06/29 09:28:41;;;;;;;3.33;2.25;;;;;;;33.68;35.91;100713.06;5048602;28;20229;-67
2021/06/29 09:31:13;;;;;;;8.25;2.60;;;;;;;33.54;35.04;100706.16;5047360;28;20284;-66
2021/06/29 09:33:43;;;;;;;3.80;2.17;;;;;;;33.77;34.20;100702.31;5045311;28;20559;-67
2021/06/29 09:36:14;;;;;;;5.32;2.40;;;;;;;33.54;32.82;100695.03;5059683;28;20224;-67
2021/06/29 09:38:44;;;;;;;4.70;2.08;;;;;;;33.79;34.55;100697.31;5035471;28;20209;-67
2021/06/29 09:41:17;;;;;;;1.70;1.60;;;;;;;33.79;32.49;100694.53;5047208;28;20197;-66
2021/06/29 09:43:47;;;;;;;4.20;1.67;;;;;;;33.85;33.68;100701.88;5046985;28;20205;-67
2021/06/29 09:46:19;;;;;;;1.77;1.55;;;;;;;33.52;32.91;100692.50;5046984;28;20197;-66
2021/06/29 09:48:50;;;;;;;4.22;1.40;;;;;;;33.39;33.22;100704.03;5035288;28;20317;-67
2021/06/29 09:51:39;;;;;;;1.75;1.65;;;;;;;33.73;33.82;100699.22;5036875;28;20221;-68
2021/06/29 09:54:10;;;;;;;2.50;1.60;;;;;;;34.04;33.74;100699.63;5038991;28;20206;-67
2021/06/29 09:56:41;;;;;;;1.92;1.70;;;;;;;34.46;33.85;100699.84;5039055;28;20256;-64
2021/06/29 09:59:13;;;;;;;1.75;1.60;;;;;;;34.02;32.19;100697.09;5047892;28;20202;-66
2021/06/29 10:01:44;;;;;;;3.10;1.90;;;;;;;34.18;32.96;100686.97;5051991;28;20693;-66
2021/06/29 10:04:12;;;;;;;1.95;1.70;;;;;;;34.25;31.93;100679.22;5061484;28;20198;-66
2021/06/29 10:06:41;;;;;;;2.90;1.58;;;;;;;34.37;32.57;100682.75;5068209;28;20213;-66
2021/06/29 10:09:12;;;;;;;1.90;1.50;;;;;;;34.32;32.39;100679.88;5053549;28;20205;-66
2021/06/29 10:11:41;;;;;;;2.10;1.45;;;;;;;34.47;32.50;100682.00;5049048;28;20205;-66
2021/06/29 10:14:11;;;;;;;2.70;1.20;;;;;;;34.55;33.08;100673.16;5057602;28;20206;-65
2021/06/29 10:16:43;;;;;;;2.35;1.48;;;;;;;34.68;33.63;100675.53;5041062;28;20576;-66
2021/06/29 10:19:32;;;;;;;2.58;1.88;;;;;;;34.77;33.23;100661.91;5045094;28;20194;-66
2021/06/29 10:22:01;;;;;;;4.20;1.50;;;;;;;35.11;33.28;100668.06;5046571;28;20198;-69
2021/06/29 10:24:32;;;;;;;1.45;1.17;;;;;;;34.29;32.60;100668.38;5041480;28;20225;-71
2021/06/29 10:27:04;;;;;;;1.30;1.20;;;;;;;34.64;33.38;100662.38;5049104;28;20214;-67
2021/06/29 10:29:32;;;;;;;1.23;1.13;;;;;;;34.70;32.30;100662.16;5043016;28;20234;-66
2021/06/29 10:32:04;;;;;;;2.03;1.38;;;;;;;35.01;33.05;100654.88;5047013;28;20205;-66
2021/06/29 10:34:34;;;;;;;1.58;1.05;;;;;;;35.19;33.19;100661.97;5048085;28;20204;-70
2021/06/29 10:37:03;;;;;;;2.20;1.20;;;;;;;35.03;29.90;100658.25;5048564;28;20197;-71
2021/06/29 10:39:33;;;;;;;2.47;1.30;;;;;;;34.41;31.60;100642.06;5040778;28;21525;-70
2021/06/29 10:42:04;;;;;;;1.27;1.25;;;;;;;34.69;31.83;100646.50;5045015;28;20204;-71
2021/06/29 10:44:37;;;;;;;1.85;1.27;;;;;;;34.25;30.75;100646.59;5047280;28;20203;-71
2021/06/29 10:47:20;;;;;;;3.28;1.63;;;;;;;34.60;31.22;100639.75;5051048;28;20201;-70
2021/06/29 10:49:51;;;;;;;2.15;1.40;;;;;;;34.52;31.74;100637.41;5050568;28;20217;-71
2021/06/29 10:52:37;;;;;;;1.40;1.30;;;;;;;34.39;32.75;100646.22;5051464;28;20703;-71
2021/06/29 10:55:07;;;;;;;1.55;1.45;;;;;;;34.44;32.98;100644.31;5050179;28;20216;-72
2021/06/29 10:57:41;;;;;;;1.45;1.30;;;;;;;34.33;31.19;100647.25;5051511;28;20557;-71
2021/06/29 11:00:28;;;;;;;2.28;1.30;;;;;;;34.20;31.85;100642.91;5052190;28;20672;-71
2021/06/29 11:03:05;;;;;;;1.77;1.35;;;;;;;34.48;33.00;100644.63;5041008;28;20206;-71
2021/06/29 11:05:37;;;;;;;1.40;1.30;;;;;;;34.53;32.03;100644.66;5049008;28;20833;-71
2021/06/29 11:08:10;;;;;;;3.78;1.40;;;;;;;34.05;33.06;100646.41;5053751;28;20579;-70
2021/06/29 11:10:40;;;;;;;1.85;1.23;;;;;;;34.01;32.30;100630.47;5047994;28;20224;-71
2021/06/29 11:13:10;;;;;;;1.70;1.60;;;;;;;33.79;32.25;100636.00;5047457;28;20205;-71
2021/06/29 11:15:53;;;;;;;2.33;1.50;;;;;;;33.42;32.66;100631.09;5053161;28;20213;-71
2021/06/29 11:18:44;;;;;;;2.67;2.28;;;;;;;33.93;32.76;100637.31;5051300;28;20193;-71
2021/06/29 11:21:38;;;;;;;2.10;1.23;;;;;;;33.48;31.99;100641.19;5045400;28;20201;-71
2021/06/29 11:24:38;;;;;;;3.78;2.05;;;;;;;33.59;32.24;100640.22;5060820;28;20205;-71
2021/06/29 11:27:08;;;;;;;1.38;1.27;;;;;;;32.99;31.39;100632.63;5045899;28;20205;-71
2021/06/29 11:29:41;;;;;;;1.92;1.40;;;;;;;33.11;32.52;100626.13;5057204;28;20838;-71
2021/06/29 11:32:30;;;;;;;1.40;1.30;;;;;;;32.88;32.19;100630.81;5063588;28;20248;-71
2021/06/29 11:35:31;;;;;;;9.30;1.33;;;;;;;32.93;30.93;100630.03;5047304;28;20224;-71
2021/06/29 11:38:05;;;;;;;1.30;1.20;;;;;;;32.61;32.31;100626.97;5052606;28;20243;-71